createdAt,value
2019-05-16T00:01:11.968Z,2.90
2019-05-16T00:03:42.424Z,2.80
2019-05-16T00:06:13.915Z,2.70
2019-05-16T00:08:48.078Z,2.70
2019-05-16T00:11:18.759Z,2.60
2019-05-16T00:13:51.962Z,2.60
2019-05-16T00:16:22.694Z,2.50
2019-05-16T00:18:54.602Z,2.30
2019-05-16T00:21:38.228Z,2.30
2019-05-16T00:27:18.720Z,2.10
2019-05-16T00:30:02.166Z,2.00
2019-05-16T00:32:32.806Z,1.90
2019-05-16T00:35:08.900Z,1.90
2019-05-16T00:37:32.804Z,1.90
2019-05-16T00:40:03.256Z,1.80
2019-05-16T00:42:33.664Z,1.80
2019-05-16T00:45:04.323Z,1.70
2019-05-16T00:47:34.770Z,1.60
2019-05-16T00:50:08.562Z,1.50
2019-05-16T00:52:39.574Z,1.40
2019-05-16T00:55:10.148Z,1.30
2019-05-16T00:57:41.239Z,1.30
2019-05-16T01:00:12.108Z,1.30
2019-05-16T01:02:42.589Z,1.30
2019-05-16T01:05:14.596Z,1.30
2019-05-16T01:07:45.181Z,1.20
2019-05-16T01:10:53.959Z,1.10
2019-05-16T01:13:18.584Z,1.00
2019-05-16T01:15:49.117Z,1.00
2019-05-16T01:18:19.633Z,0.90
2019-05-16T01:20:50.063Z,0.90
2019-05-16T01:23:20.389Z,0.90
2019-05-16T01:25:50.853Z,0.90
2019-05-16T01:28:21.307Z,0.90
2019-05-16T01:30:52.127Z,0.90
2019-05-16T01:33:22.659Z,0.90
2019-05-16T01:35:53.212Z,0.90
2019-05-16T01:38:23.609Z,0.90
2019-05-16T01:40:54.137Z,0.90
2019-05-16T01:43:24.918Z,0.90
2019-05-16T01:45:57.678Z,0.90
2019-05-16T01:48:29.246Z,0.90
2019-05-16T01:50:59.797Z,0.90
2019-05-16T01:53:30.143Z,0.90
2019-05-16T01:56:00.607Z,0.90
2019-05-16T01:58:31.034Z,0.90
2019-05-16T02:01:11.856Z,0.80
2019-05-16T02:03:38.771Z,0.80
2019-05-16T02:06:08.830Z,0.80
2019-05-16T02:08:39.392Z,0.70
2019-05-16T02:11:09.989Z,0.70
2019-05-16T02:13:40.342Z,0.70
2019-05-16T02:16:11.193Z,0.70
2019-05-16T02:18:41.698Z,0.70
2019-05-16T02:21:12.207Z,0.70
2019-05-16T02:23:43.520Z,0.60
2019-05-16T02:26:19.735Z,0.60
2019-05-16T02:28:55.370Z,0.60
2019-05-16T02:31:22.765Z,0.60
2019-05-16T02:33:52.180Z,0.60
2019-05-16T02:36:22.506Z,0.60
2019-05-16T02:38:55.489Z,0.50
2019-05-16T02:41:25.570Z,0.40
2019-05-16T02:43:55.956Z,0.40
2019-05-16T02:46:26.377Z,0.40
2019-05-16T02:48:56.775Z,0.40
2019-05-16T02:51:31.266Z,0.40
2019-05-16T02:54:01.363Z,0.40
2019-05-16T02:56:38.129Z,0.40
2019-05-16T02:59:07.429Z,0.40
2019-05-16T03:01:40.649Z,0.40
2019-05-16T03:04:11.122Z,0.40
2019-05-16T03:06:42.005Z,0.40
2019-05-16T03:09:13.046Z,0.40
2019-05-16T03:11:45.364Z,0.30
2019-05-16T03:14:16.156Z,0.30
2019-05-16T03:16:50.615Z,0.20
2019-05-16T03:19:23.076Z,0.30
2019-05-16T03:21:55.053Z,0.20
2019-05-16T03:24:25.501Z,0.20
2019-05-16T03:26:55.897Z,0.10
2019-05-16T03:29:26.319Z,0.10
2019-05-16T03:31:56.930Z,0.00
2019-05-16T03:34:27.429Z,0.00
2019-05-16T03:37:03.307Z,0.00
2019-05-16T03:39:31.344Z,0.00
2019-05-16T03:42:01.886Z,0.10
2019-05-16T03:44:35.847Z,0.10
2019-05-16T03:47:01.836Z,0.10
2019-05-16T03:49:32.279Z,0.20
2019-05-16T03:52:02.677Z,0.10
2019-05-16T03:54:33.144Z,0.10
2019-05-16T03:57:03.669Z,0.10
2019-05-16T03:59:35.063Z,0.00
2019-05-16T04:02:05.589Z,-0.10
2019-05-16T04:04:37.102Z,-0.10
2019-05-16T04:07:10.799Z,-0.20
2019-05-16T04:09:41.151Z,-0.20
2019-05-16T04:12:11.883Z,-0.20
2019-05-16T04:14:43.474Z,-0.20
2019-05-16T04:17:13.939Z,-0.20
2019-05-16T04:19:44.410Z,-0.20
2019-05-16T04:22:16.032Z,-0.10
2019-05-16T04:24:46.724Z,-0.10
2019-05-16T04:27:21.535Z,0.00
2019-05-16T04:29:51.534Z,0.00
2019-05-16T04:32:23.088Z,0.00
2019-05-16T04:34:54.517Z,0.00
2019-05-16T04:37:31.107Z,0.00
2019-05-16T04:40:01.441Z,0.10
2019-05-16T04:42:32.220Z,0.40
2019-05-16T04:45:02.709Z,0.60
2019-05-16T04:47:41.190Z,0.80
2019-05-16T04:50:11.593Z,1.00
2019-05-16T04:52:42.429Z,1.10
2019-05-16T04:55:13.016Z,1.40
2019-05-16T04:57:43.442Z,1.60
2019-05-16T05:00:15.449Z,1.80
2019-05-16T05:02:45.871Z,2.10
2019-05-16T05:05:16.559Z,2.20
2019-05-16T05:07:46.925Z,2.20
2019-05-16T05:10:20.412Z,2.30
2019-05-16T05:12:51.475Z,2.50
2019-05-16T05:15:21.575Z,2.60
2019-05-16T05:17:52.956Z,2.70
2019-05-16T05:20:24.971Z,2.50
2019-05-16T05:22:56.495Z,2.80
2019-05-16T05:25:27.271Z,3.20
2019-05-16T05:28:01.058Z,3.90
2019-05-16T05:30:43.990Z,4.20
2019-05-16T05:33:15.255Z,4.90
2019-05-16T05:36:13.080Z,5.30
2019-05-16T05:42:04.919Z,6.60
2019-05-16T05:44:35.428Z,7.50
2019-05-16T05:47:05.871Z,7.90
2019-05-16T05:49:36.738Z,7.50
2019-05-16T05:52:11.200Z,7.60
2019-05-16T05:54:40.801Z,7.60
2019-05-16T05:57:11.398Z,7.90
2019-05-16T05:59:41.943Z,8.50
2019-05-16T06:02:12.402Z,9.10
2019-05-16T06:04:43.291Z,9.20
2019-05-16T06:07:14.194Z,9.20
2019-05-16T06:09:55.570Z,8.80
2019-05-16T06:12:31.025Z,8.80
2019-05-16T06:15:08.481Z,9.00
2019-05-16T06:17:41.285Z,9.30
2019-05-16T06:20:14.893Z,9.20
2019-05-16T06:22:57.080Z,9.80
2019-05-16T06:29:20.204Z,10.70
2019-05-16T06:32:00.080Z,10.00
2019-05-16T06:34:32.800Z,10.00
2019-05-16T06:37:12.543Z,10.20
2019-05-16T06:39:51.914Z,10.80
2019-05-16T06:42:31.521Z,10.80
2019-05-16T06:45:10.316Z,10.90
2019-05-16T06:47:50.200Z,11.20
2019-05-16T06:50:31.425Z,11.80
2019-05-16T06:53:02.089Z,11.60
2019-05-16T06:55:32.504Z,12.10
2019-05-16T06:58:03.218Z,12.40
2019-05-16T07:00:33.785Z,11.70
2019-05-16T07:03:05.071Z,12.20
2019-05-16T07:05:37.203Z,11.50
2019-05-16T07:08:07.713Z,10.90
2019-05-16T07:10:39.792Z,10.60
2019-05-16T07:13:10.541Z,10.70
2019-05-16T07:15:41.321Z,10.90
2019-05-16T07:18:13.222Z,10.70
2019-05-16T07:20:43.822Z,10.30
2019-05-16T07:23:14.325Z,10.20
2019-05-16T07:25:45.160Z,10.70
2019-05-16T07:28:16.123Z,11.70
2019-05-16T07:30:46.723Z,12.00
2019-05-16T07:33:17.264Z,12.20
2019-05-16T07:42:00.546Z,10.80
2019-05-16T07:44:31.250Z,11.30
2019-05-16T07:47:01.693Z,11.50
2019-05-16T07:49:32.178Z,12.10
2019-05-16T07:52:02.779Z,12.60
2019-05-16T07:54:34.553Z,13.00
2019-05-16T07:57:15.554Z,12.80
2019-05-16T07:59:37.172Z,13.00
2019-05-16T08:02:07.680Z,12.00
2019-05-16T08:05:20.767Z,12.90
2019-05-16T08:07:51.235Z,13.70
2019-05-16T08:16:20.835Z,12.40
2019-05-16T08:18:50.666Z,12.40
2019-05-16T08:21:20.734Z,12.20
2019-05-16T08:46:49.443Z,10.50
2019-05-16T08:49:21.880Z,10.70
2019-05-16T08:51:53.250Z,10.90
2019-05-16T08:54:31.566Z,10.80
2019-05-16T08:57:17.554Z,10.50
2019-05-16T08:59:33.936Z,10.60
2019-05-16T09:02:04.652Z,10.50
2019-05-16T09:04:43.427Z,10.20
2019-05-16T09:07:12.703Z,10.30
2019-05-16T09:16:48.286Z,11.30
2019-05-16T09:19:18.721Z,11.20
2019-05-16T09:21:49.206Z,11.10
2019-05-16T09:24:19.734Z,10.80
2019-05-16T09:26:50.126Z,10.40
2019-05-16T09:29:23.685Z,11.10
2019-05-16T09:32:08.114Z,11.60
2019-05-16T09:34:28.344Z,11.30
2019-05-16T09:37:02.881Z,11.20
2019-05-16T09:39:33.636Z,10.40
2019-05-16T09:42:04.063Z,10.10
2019-05-16T09:44:36.924Z,10.40
2019-05-16T09:47:10.144Z,10.10
2019-05-16T09:49:40.486Z,10.70
2019-05-16T09:52:11.011Z,10.80
2019-05-16T09:54:46.726Z,10.90
2019-05-16T09:57:10.873Z,10.40
2019-05-16T10:02:49.837Z,10.30
2019-05-16T10:05:21.091Z,10.40
2019-05-16T10:07:51.790Z,10.60
2019-05-16T10:10:22.719Z,10.60
2019-05-16T10:16:19.272Z,10.70
2019-05-16T10:44:01.741Z,11.20
2019-05-16T10:46:32.339Z,10.80
2019-05-16T10:49:02.791Z,11.20
2019-05-16T10:51:33.386Z,11.50
2019-05-16T10:54:13.141Z,11.40
2019-05-16T10:56:40.361Z,11.30
2019-05-16T10:59:46.859Z,11.50
2019-05-16T11:01:42.216Z,11.50
2019-05-16T11:04:26.337Z,11.30
2019-05-16T11:06:46.603Z,11.10
2019-05-16T11:12:50.387Z,11.90
2019-05-16T11:15:17.238Z,11.60
2019-05-16T11:17:47.872Z,12.00
2019-05-16T11:20:20.545Z,12.00
2019-05-16T11:22:52.886Z,11.70
2019-05-16T11:25:29.583Z,11.90
2019-05-16T11:27:57.581Z,11.90
2019-05-16T11:30:28.525Z,11.90
2019-05-16T11:33:01.757Z,12.00
2019-05-16T11:35:33.708Z,12.30
2019-05-16T11:38:09.118Z,12.00
2019-05-16T11:40:39.553Z,12.20
2019-05-16T11:43:17.730Z,11.70
2019-05-16T11:45:42.968Z,11.50
2019-05-16T11:48:13.470Z,11.90
2019-05-16T11:54:19.453Z,12.30
2019-05-16T11:56:50.249Z,11.60
2019-05-16T11:59:20.711Z,11.90
2019-05-16T12:01:51.230Z,12.10
2019-05-16T12:08:07.986Z,13.10
2019-05-16T12:10:38.576Z,12.40
2019-05-16T12:13:24.288Z,12.10
2019-05-16T12:15:41.285Z,11.80
2019-05-16T12:18:11.931Z,12.20
2019-05-16T12:20:45.264Z,12.20
2019-05-16T12:23:17.120Z,12.40
2019-05-16T12:29:17.175Z,12.10
2019-05-16T12:31:57.595Z,11.50
2019-05-16T12:34:19.197Z,11.60
2019-05-16T12:36:49.686Z,11.50
2019-05-16T12:39:20.158Z,11.60
2019-05-16T12:45:01.455Z,11.70
2019-05-16T12:47:37.487Z,12.00
2019-05-16T12:50:02.834Z,12.20
2019-05-16T12:52:33.354Z,12.30
2019-05-16T12:55:03.862Z,12.10
2019-05-16T12:57:37.973Z,12.10
2019-05-16T13:00:07.538Z,12.30
2019-05-16T13:02:38.121Z,12.60
2019-05-16T13:05:09.646Z,12.10
2019-05-16T13:07:40.280Z,12.20
2019-05-16T13:10:11.473Z,12.40
2019-05-16T13:12:42.050Z,12.20
2019-05-16T13:15:12.856Z,12.30
2019-05-16T13:17:43.322Z,12.10
2019-05-16T13:20:14.181Z,12.00
2019-05-16T13:22:47.147Z,12.20
2019-05-16T13:25:18.344Z,12.20
2019-05-16T13:27:48.878Z,12.30
2019-05-16T13:30:48.830Z,12.10
2019-05-16T13:33:19.326Z,12.30
2019-05-16T13:35:49.690Z,12.60
2019-05-16T13:38:20.255Z,12.70
2019-05-16T13:40:50.916Z,12.60
2019-05-16T13:43:21.441Z,12.60
2019-05-16T13:49:18.486Z,12.50
2019-05-16T13:51:49.082Z,12.20
2019-05-16T13:54:19.577Z,12.30
2019-05-16T13:56:52.872Z,12.10
2019-05-16T13:59:23.416Z,12.10
2019-05-16T14:01:53.872Z,11.90
2019-05-16T14:04:26.335Z,11.90
2019-05-16T14:06:58.805Z,12.10
2019-05-16T14:09:30.970Z,12.10
2019-05-16T14:12:01.664Z,12.10
2019-05-16T14:14:38.193Z,12.30
2019-05-16T14:17:04.273Z,12.50
2019-05-16T14:19:37.370Z,12.30
2019-05-16T14:22:07.748Z,12.40
2019-05-16T14:24:39.779Z,12.50
2019-05-16T14:27:10.247Z,12.30
2019-05-16T14:29:40.932Z,12.30
2019-05-16T14:32:11.473Z,12.50
2019-05-16T14:34:41.877Z,12.30
2019-05-16T14:37:12.511Z,12.30
2019-05-16T14:39:42.978Z,12.20
2019-05-16T14:42:13.522Z,12.10
2019-05-16T14:45:03.650Z,12.10
2019-05-16T14:47:18.058Z,11.90
2019-05-16T14:49:49.022Z,12.10
2019-05-16T14:52:19.601Z,12.00
2019-05-16T14:54:51.232Z,11.90
2019-05-16T14:57:21.745Z,11.90
2019-05-16T14:59:52.191Z,11.90
2019-05-16T15:02:22.644Z,11.90
2019-05-16T15:08:19.230Z,11.60
2019-05-16T15:10:49.737Z,11.60
2019-05-16T15:13:20.175Z,11.60
2019-05-16T15:15:50.681Z,11.50
2019-05-16T15:18:50.231Z,11.70
2019-05-16T15:21:23.648Z,11.70
2019-05-16T15:23:59.369Z,11.80
2019-05-16T15:26:28.038Z,11.70
2019-05-16T15:28:59.183Z,11.80
2019-05-16T15:34:41.286Z,11.90
2019-05-16T15:37:11.996Z,11.60
2019-05-16T15:39:42.411Z,11.50
2019-05-16T15:42:17.918Z,11.60
2019-05-16T15:44:42.460Z,11.30
2019-05-16T15:47:12.893Z,11.40
2019-05-16T15:49:43.352Z,11.50
2019-05-16T15:52:16.593Z,11.30
2019-05-16T15:54:46.655Z,11.30
2019-05-16T15:57:20.123Z,11.20
2019-05-16T15:59:57.599Z,11.20
2019-05-16T16:02:27.850Z,11.30
2019-05-16T16:04:58.275Z,11.20
2019-05-16T16:07:31.382Z,11.10
2019-05-16T16:10:01.820Z,11.20
2019-05-16T16:12:32.508Z,11.30
2019-05-16T16:15:03.193Z,11.20
2019-05-16T16:17:33.935Z,11.20
2019-05-16T16:20:09.935Z,11.20
2019-05-16T16:22:40.271Z,11.30
2019-05-16T16:25:10.991Z,11.10
2019-05-16T16:27:41.517Z,11.20
2019-05-16T16:30:12.041Z,11.10
2019-05-16T16:32:42.503Z,11.20
2019-05-16T16:35:50.048Z,11.10
2019-05-16T16:38:20.709Z,11.00
2019-05-16T16:40:51.269Z,10.90
2019-05-16T16:43:24.138Z,10.90
2019-05-16T16:46:06.276Z,10.90
2019-05-16T16:48:29.121Z,10.80
2019-05-16T16:50:59.721Z,10.50
2019-05-16T16:53:30.158Z,10.40
2019-05-16T16:56:00.658Z,10.40
2019-05-16T16:58:31.174Z,10.40
2019-05-16T17:01:21.599Z,10.30
2019-05-16T17:03:54.765Z,10.30
2019-05-16T17:06:26.902Z,10.20
2019-05-16T17:08:56.834Z,10.20
2019-05-16T17:11:27.421Z,10.10
2019-05-16T17:13:57.825Z,10.10
2019-05-16T17:16:31.552Z,10.00
2019-05-16T17:18:57.868Z,10.00
2019-05-16T17:21:28.430Z,9.80
2019-05-16T17:23:58.906Z,9.70
2019-05-16T17:26:29.448Z,9.80
2019-05-16T17:28:59.919Z,9.80
2019-05-16T17:31:30.365Z,9.90
2019-05-16T17:34:00.801Z,9.90
2019-05-16T17:36:31.316Z,9.90
2019-05-16T17:39:01.949Z,9.80
2019-05-16T17:41:36.710Z,9.80
2019-05-16T17:44:06.947Z,9.80
2019-05-16T17:46:40.839Z,9.80
2019-05-16T17:49:09.908Z,9.80
2019-05-16T17:51:40.446Z,9.80
2019-05-16T17:54:17.080Z,9.80
2019-05-16T17:56:44.808Z,9.90
2019-05-16T17:59:17.003Z,9.80
2019-05-16T18:01:47.682Z,9.80
2019-05-16T18:04:18.212Z,9.80
2019-05-16T18:06:48.734Z,9.80
2019-05-16T18:09:19.179Z,9.80
2019-05-16T18:11:49.722Z,9.80
2019-05-16T18:14:20.283Z,9.70
2019-05-16T18:16:58.387Z,9.70
2019-05-16T18:19:22.902Z,9.60
2019-05-16T18:22:08.426Z,9.60
2019-05-16T18:24:49.309Z,9.60
2019-05-16T18:27:42.245Z,9.50
2019-05-16T18:30:24.028Z,9.50
2019-05-16T18:33:19.363Z,9.50
2019-05-16T18:36:00.475Z,9.50
2019-05-16T18:38:53.324Z,9.50
2019-05-16T18:41:36.573Z,9.40
2019-05-16T18:44:33.377Z,9.40
2019-05-16T18:47:14.657Z,9.40
2019-05-16T18:50:09.695Z,9.40
2019-05-16T18:52:51.671Z,9.40
2019-05-16T18:55:46.221Z,9.40
2019-05-16T18:58:33.491Z,9.30
2019-05-16T19:01:20.061Z,9.20
2019-05-16T19:04:09.617Z,9.20
2019-05-16T19:06:59.641Z,9.20
2019-05-16T19:09:48.290Z,9.10
2019-05-16T19:12:37.193Z,9.10
2019-05-16T19:15:26.615Z,9.00
2019-05-16T19:18:18.548Z,8.90
2019-05-16T19:21:07.486Z,8.90
2019-05-16T19:23:57.391Z,8.80
2019-05-16T19:26:28.040Z,8.80
2019-05-16T19:28:58.582Z,8.70
2019-05-16T19:31:29.249Z,8.60
2019-05-16T19:33:59.624Z,8.50
2019-05-16T19:36:32.682Z,8.50
2019-05-16T19:39:07.388Z,8.40
2019-05-16T19:41:39.252Z,8.40
2019-05-16T19:44:09.778Z,8.40
2019-05-16T19:46:40.293Z,8.40
2019-05-16T19:49:11.702Z,8.40
2019-05-16T19:51:48.486Z,8.40
2019-05-16T19:54:11.646Z,8.50
2019-05-16T19:56:42.436Z,8.50
2019-05-16T19:59:12.863Z,8.50
2019-05-16T20:01:43.758Z,8.40
2019-05-16T20:04:18.119Z,8.40
2019-05-16T20:10:08.860Z,8.40
2019-05-16T20:12:41.913Z,8.40
2019-05-16T20:15:12.165Z,8.30
2019-05-16T20:17:52.117Z,8.30
2019-05-16T20:20:18.322Z,8.20
2019-05-16T20:22:51.178Z,8.20
2019-05-16T20:25:21.764Z,8.30
2019-05-16T20:27:52.279Z,8.20
2019-05-16T20:30:23.015Z,8.10
2019-05-16T20:32:54.473Z,8.10
2019-05-16T20:35:26.663Z,8.00
2019-05-16T20:37:57.383Z,7.90
2019-05-16T20:40:27.762Z,7.90
2019-05-16T20:42:59.468Z,7.90
2019-05-16T20:45:30.914Z,7.90
2019-05-16T20:48:11.107Z,7.80
2019-05-16T20:50:33.618Z,7.70
2019-05-16T20:53:06.944Z,7.70
2019-05-16T20:55:42.744Z,7.60
2019-05-16T20:58:07.616Z,7.40
2019-05-16T21:00:38.449Z,7.40
2019-05-16T21:03:09.008Z,7.30
2019-05-16T21:05:39.490Z,7.20
2019-05-16T21:08:09.933Z,7.10
2019-05-16T21:10:40.409Z,7.00
2019-05-16T21:13:11.877Z,6.90
2019-05-16T21:15:42.369Z,6.80
2019-05-16T21:18:12.799Z,6.80
2019-05-16T21:20:43.283Z,6.70
2019-05-16T21:23:13.807Z,6.70
2019-05-16T21:25:46.544Z,6.60
2019-05-16T21:28:19.839Z,6.60
2019-05-16T21:30:50.393Z,6.60
2019-05-16T21:33:20.881Z,6.60
2019-05-16T21:35:51.275Z,6.50
2019-05-16T21:38:21.842Z,6.40
2019-05-16T21:40:52.762Z,6.40
2019-05-16T21:43:24.427Z,6.30
2019-05-16T21:45:56.801Z,6.30
2019-05-16T21:48:27.845Z,6.30
2019-05-16T21:50:59.619Z,6.30
2019-05-16T21:53:32.399Z,6.20
2019-05-16T21:56:02.662Z,6.20
2019-05-16T21:58:32.987Z,6.20
2019-05-16T22:01:06.633Z,6.10
2019-05-16T22:03:37.363Z,6.10
2019-05-16T22:06:09.015Z,6.00
2019-05-16T22:08:40.376Z,6.00
2019-05-16T22:11:11.079Z,5.90
2019-05-16T22:13:41.652Z,5.90
2019-05-16T22:16:12.005Z,5.80
2019-05-16T22:18:44.292Z,5.70
2019-05-16T22:21:16.258Z,5.70
2019-05-16T22:23:46.612Z,5.60
2019-05-16T22:26:17.274Z,5.60
2019-05-16T22:28:49.517Z,5.50
2019-05-16T22:31:20.184Z,5.40
2019-05-16T22:33:52.319Z,5.40
2019-05-16T22:36:22.689Z,5.30
2019-05-16T22:38:53.179Z,5.30
2019-05-16T22:41:27.404Z,5.20
2019-05-16T22:43:57.817Z,5.20
2019-05-16T22:46:28.463Z,5.20
2019-05-16T22:48:58.997Z,5.10
2019-05-16T22:51:29.551Z,5.10
2019-05-16T22:53:59.930Z,5.10
2019-05-16T22:56:30.617Z,5.00
2019-05-16T22:59:01.063Z,5.00
2019-05-16T23:01:37.795Z,4.90
2019-05-16T23:04:08.316Z,4.90
2019-05-16T23:06:38.824Z,4.80
2019-05-16T23:09:09.478Z,4.80
2019-05-16T23:11:39.894Z,4.70
2019-05-16T23:14:10.388Z,4.70
2019-05-16T23:16:40.749Z,4.60
2019-05-16T23:19:11.150Z,4.50
2019-05-16T23:21:41.509Z,4.30
2019-05-16T23:24:11.967Z,4.30
2019-05-16T23:26:42.359Z,4.20
2019-05-16T23:29:12.752Z,4.10
2019-05-16T23:31:43.122Z,4.10
2019-05-16T23:34:13.632Z,4.00
2019-05-16T23:36:46.168Z,3.90
2019-05-16T23:39:16.007Z,3.80
2019-05-16T23:41:47.363Z,3.70
2019-05-16T23:44:17.951Z,3.70
2019-05-16T23:46:48.403Z,3.60
2019-05-16T23:49:18.828Z,3.60
2019-05-16T23:51:49.241Z,3.50
2019-05-16T23:54:19.648Z,3.50
2019-05-16T23:56:50.100Z,3.40
2019-05-16T23:59:20.703Z,3.40
